sensor_id;sensor_type;location;lat;lon;timestamp;P1;durP1;ratioP1;P2;durP2;ratioP2
12878;SDS011;20617;49.476;10.986;2023-07-20T00:01:00;4.90;;;3.65;;
12878;SDS011;20617;49.476;10.986;2023-07-20T00:03:10;5.60;;;3.85;;
12878;SDS011;20617;49.476;10.986;2023-07-20T00:05:21;9.13;;;4.07;;
12878;SDS011;20617;49.476;10.986;2023-07-20T00:07:29;3.97;;;2.92;;
12878;SDS011;20617;49.476;10.986;2023-07-20T00:09:35;6.38;;;3.72;;
12878;SDS011;20617;49.476;10.986;2023-07-20T00:11:47;4.93;;;2.92;;
12878;SDS011;20617;49.476;10.986;2023-07-20T00:13:54;5.15;;;3.50;;
12878;SDS011;20617;49.476;10.986;2023-07-20T00:15:59;6.28;;;3.67;;
12878;SDS011;20617;49.476;10.986;2023-07-20T00:18:04;5.03;;;3.10;;
12878;SDS011;20617;49.476;10.986;2023-07-20T00:20:07;4.40;;;3.20;;
12878;SDS011;20617;49.476;10.986;2023-07-20T00:22:18;3.90;;;2.95;;
12878;SDS011;20617;49.476;10.986;2023-07-20T00:24:23;5.68;;;3.58;;
12878;SDS011;20617;49.476;10.986;2023-07-20T00:26:30;4.80;;;3.20;;
12878;SDS011;20617;49.476;10.986;2023-07-20T00:30:40;6.43;;;4.05;;
12878;SDS011;20617;49.476;10.986;2023-07-20T00:32:45;5.28;;;4.07;;
12878;SDS011;20617;49.476;10.986;2023-07-20T00:34:52;7.50;;;3.90;;
12878;SDS011;20617;49.476;10.986;2023-07-20T00:36:57;5.28;;;3.10;;
12878;SDS011;20617;49.476;10.986;2023-07-20T00:39:04;5.32;;;3.22;;
12878;SDS011;20617;49.476;10.986;2023-07-20T00:41:09;6.28;;;3.35;;
12878;SDS011;20617;49.476;10.986;2023-07-20T00:43:15;5.25;;;3.45;;
12878;SDS011;20617;49.476;10.986;2023-07-20T00:45:21;5.97;;;3.65;;
12878;SDS011;20617;49.476;10.986;2023-07-20T00:47:28;5.70;;;3.40;;
12878;SDS011;20617;49.476;10.986;2023-07-20T00:49:34;4.18;;;3.28;;
12878;SDS011;20617;49.476;10.986;2023-07-20T00:53:44;6.68;;;3.00;;
12878;SDS011;20617;49.476;10.986;2023-07-20T00:55:51;6.22;;;3.65;;
12878;SDS011;20617;49.476;10.986;2023-07-20T00:57:57;4.72;;;3.08;;
12878;SDS011;20617;49.476;10.986;2023-07-20T01:00:02;4.90;;;2.72;;
12878;SDS011;20617;49.476;10.986;2023-07-20T01:02:08;5.85;;;3.33;;
12878;SDS011;20617;49.476;10.986;2023-07-20T01:04:14;4.70;;;3.25;;
12878;SDS011;20617;49.476;10.986;2023-07-20T01:06:23;4.63;;;2.80;;
12878;SDS011;20617;49.476;10.986;2023-07-20T01:08:36;4.63;;;3.00;;
12878;SDS011;20617;49.476;10.986;2023-07-20T01:10:49;8.15;;;3.67;;
12878;SDS011;20617;49.476;10.986;2023-07-20T01:12:59;4.63;;;3.17;;
12878;SDS011;20617;49.476;10.986;2023-07-20T01:15:06;5.75;;;3.30;;
12878;SDS011;20617;49.476;10.986;2023-07-20T01:17:12;4.68;;;3.28;;
12878;SDS011;20617;49.476;10.986;2023-07-20T01:19:18;4.68;;;3.40;;
12878;SDS011;20617;49.476;10.986;2023-07-20T01:23:35;5.40;;;3.30;;
12878;SDS011;20617;49.476;10.986;2023-07-20T01:26:15;5.13;;;3.35;;
12878;SDS011;20617;49.476;10.986;2023-07-20T01:31:19;5.03;;;3.10;;
12878;SDS011;20617;49.476;10.986;2023-07-20T01:33:27;6.20;;;2.95;;
12878;SDS011;20617;49.476;10.986;2023-07-20T01:35:36;4.90;;;2.90;;
12878;SDS011;20617;49.476;10.986;2023-07-20T01:37:42;9.68;;;3.80;;
12878;SDS011;20617;49.476;10.986;2023-07-20T01:39:49;4.47;;;3.53;;
12878;SDS011;20617;49.476;10.986;2023-07-20T01:41:57;5.70;;;3.85;;
12878;SDS011;20617;49.476;10.986;2023-07-20T01:46:08;5.17;;;3.57;;
12878;SDS011;20617;49.476;10.986;2023-07-20T01:48:15;5.45;;;3.72;;
12878;SDS011;20617;49.476;10.986;2023-07-20T01:50:22;7.05;;;3.85;;
12878;SDS011;20617;49.476;10.986;2023-07-20T01:54:31;5.50;;;4.03;;
12878;SDS011;20617;49.476;10.986;2023-07-20T01:58:41;8.88;;;4.65;;
12878;SDS011;20617;49.476;10.986;2023-07-20T02:00:43;6.97;;;5.07;;
12878;SDS011;20617;49.476;10.986;2023-07-20T02:02:48;9.98;;;4.50;;
12878;SDS011;20617;49.476;10.986;2023-07-20T02:04:53;8.30;;;4.22;;
12878;SDS011;20617;49.476;10.986;2023-07-20T02:06:59;7.40;;;3.80;;
12878;SDS011;20617;49.476;10.986;2023-07-20T02:09:04;7.57;;;4.20;;
12878;SDS011;20617;49.476;10.986;2023-07-20T02:11:09;7.13;;;4.20;;
12878;SDS011;20617;49.476;10.986;2023-07-20T02:13:14;7.10;;;4.50;;
12878;SDS011;20617;49.476;10.986;2023-07-20T02:15:19;10.00;;;4.60;;
12878;SDS011;20617;49.476;10.986;2023-07-20T02:17:25;6.10;;;3.83;;
12878;SDS011;20617;49.476;10.986;2023-07-20T02:19:34;6.38;;;4.05;;
12878;SDS011;20617;49.476;10.986;2023-07-20T02:21:41;6.55;;;4.30;;
12878;SDS011;20617;49.476;10.986;2023-07-20T02:23:46;8.93;;;4.22;;
12878;SDS011;20617;49.476;10.986;2023-07-20T02:25:52;6.53;;;3.75;;
12878;SDS011;20617;49.476;10.986;2023-07-20T02:30:03;8.52;;;4.38;;
12878;SDS011;20617;49.476;10.986;2023-07-20T02:32:11;6.15;;;3.83;;
12878;SDS011;20617;49.476;10.986;2023-07-20T02:34:17;8.02;;;4.93;;
12878;SDS011;20617;49.476;10.986;2023-07-20T02:36:22;6.28;;;4.40;;
12878;SDS011;20617;49.476;10.986;2023-07-20T02:38:31;8.40;;;4.07;;
12878;SDS011;20617;49.476;10.986;2023-07-20T02:40:36;7.82;;;4.55;;
12878;SDS011;20617;49.476;10.986;2023-07-20T02:42:42;10.70;;;4.22;;
12878;SDS011;20617;49.476;10.986;2023-07-20T02:44:48;8.93;;;4.68;;
12878;SDS011;20617;49.476;10.986;2023-07-20T02:46:53;6.68;;;4.03;;
12878;SDS011;20617;49.476;10.986;2023-07-20T02:48:58;8.30;;;3.80;;
12878;SDS011;20617;49.476;10.986;2023-07-20T02:51:03;7.13;;;4.35;;
12878;SDS011;20617;49.476;10.986;2023-07-20T02:53:09;6.30;;;4.65;;
12878;SDS011;20617;49.476;10.986;2023-07-20T02:55:17;6.22;;;4.00;;
12878;SDS011;20617;49.476;10.986;2023-07-20T02:57:22;7.82;;;4.22;;
12878;SDS011;20617;49.476;10.986;2023-07-20T03:01:31;6.75;;;4.20;;
12878;SDS011;20617;49.476;10.986;2023-07-20T03:03:36;8.68;;;4.35;;
12878;SDS011;20617;49.476;10.986;2023-07-20T03:07:46;6.25;;;3.53;;
12878;SDS011;20617;49.476;10.986;2023-07-20T03:09:49;5.38;;;3.50;;
12878;SDS011;20617;49.476;10.986;2023-07-20T03:11:59;5.63;;;3.50;;
12878;SDS011;20617;49.476;10.986;2023-07-20T03:14:09;9.15;;;4.40;;
12878;SDS011;20617;49.476;10.986;2023-07-20T03:16:18;8.02;;;3.60;;
12878;SDS011;20617;49.476;10.986;2023-07-20T03:18:22;5.75;;;3.55;;
12878;SDS011;20617;49.476;10.986;2023-07-20T03:20:29;7.30;;;3.78;;
12878;SDS011;20617;49.476;10.986;2023-07-20T03:22:34;6.82;;;3.80;;
12878;SDS011;20617;49.476;10.986;2023-07-20T03:24:39;6.93;;;3.97;;
12878;SDS011;20617;49.476;10.986;2023-07-20T03:26:44;8.25;;;4.20;;
12878;SDS011;20617;49.476;10.986;2023-07-20T03:28:52;5.78;;;3.42;;
12878;SDS011;20617;49.476;10.986;2023-07-20T03:30:57;5.85;;;4.50;;
12878;SDS011;20617;49.476;10.986;2023-07-20T03:33:05;7.85;;;3.95;;
12878;SDS011;20617;49.476;10.986;2023-07-20T03:35:10;7.20;;;4.15;;
12878;SDS011;20617;49.476;10.986;2023-07-20T03:37:20;5.03;;;3.35;;
12878;SDS011;20617;49.476;10.986;2023-07-20T03:39:25;6.10;;;3.08;;
12878;SDS011;20617;49.476;10.986;2023-07-20T03:41:38;8.27;;;3.97;;
12878;SDS011;20617;49.476;10.986;2023-07-20T03:43:44;7.40;;;3.67;;
12878;SDS011;20617;49.476;10.986;2023-07-20T03:45:51;4.90;;;3.42;;
12878;SDS011;20617;49.476;10.986;2023-07-20T03:47:56;4.18;;;3.08;;
12878;SDS011;20617;49.476;10.986;2023-07-20T03:50:03;5.00;;;3.03;;
12878;SDS011;20617;49.476;10.986;2023-07-20T03:52:08;9.80;;;3.80;;
12878;SDS011;20617;49.476;10.986;2023-07-20T03:54:13;6.93;;;3.28;;
12878;SDS011;20617;49.476;10.986;2023-07-20T03:56:21;5.57;;;3.85;;
12878;SDS011;20617;49.476;10.986;2023-07-20T03:58:26;6.72;;;4.38;;
12878;SDS011;20617;49.476;10.986;2023-07-20T04:00:32;8.57;;;4.07;;
12878;SDS011;20617;49.476;10.986;2023-07-20T04:02:39;9.05;;;4.63;;
12878;SDS011;20617;49.476;10.986;2023-07-20T04:04:47;10.05;;;4.00;;
12878;SDS011;20617;49.476;10.986;2023-07-20T04:06:49;6.00;;;3.83;;
12878;SDS011;20617;49.476;10.986;2023-07-20T04:08:54;6.63;;;3.10;;
12878;SDS011;20617;49.476;10.986;2023-07-20T04:11:00;6.70;;;3.50;;
12878;SDS011;20617;49.476;10.986;2023-07-20T04:13:06;5.65;;;3.33;;
12878;SDS011;20617;49.476;10.986;2023-07-20T04:15:11;7.78;;;4.38;;
12878;SDS011;20617;49.476;10.986;2023-07-20T04:17:14;6.95;;;3.47;;
12878;SDS011;20617;49.476;10.986;2023-07-20T04:19:21;7.85;;;3.75;;
12878;SDS011;20617;49.476;10.986;2023-07-20T04:21:27;8.05;;;4.30;;
12878;SDS011;20617;49.476;10.986;2023-07-20T04:23:32;10.05;;;4.65;;
12878;SDS011;20617;49.476;10.986;2023-07-20T04:25:38;12.60;;;4.63;;
12878;SDS011;20617;49.476;10.986;2023-07-20T04:27:46;10.13;;;4.30;;
12878;SDS011;20617;49.476;10.986;2023-07-20T04:29:52;11.55;;;4.32;;
12878;SDS011;20617;49.476;10.986;2023-07-20T04:31:57;9.40;;;4.65;;
12878;SDS011;20617;49.476;10.986;2023-07-20T04:34:05;10.18;;;4.70;;
12878;SDS011;20617;49.476;10.986;2023-07-20T04:36:13;8.70;;;4.22;;
12878;SDS011;20617;49.476;10.986;2023-07-20T04:38:22;11.38;;;4.40;;
12878;SDS011;20617;49.476;10.986;2023-07-20T04:40:50;9.93;;;4.43;;
12878;SDS011;20617;49.476;10.986;2023-07-20T04:42:55;7.70;;;4.78;;
12878;SDS011;20617;49.476;10.986;2023-07-20T04:47:07;11.73;;;4.40;;
12878;SDS011;20617;49.476;10.986;2023-07-20T04:49:13;5.82;;;3.05;;
12878;SDS011;20617;49.476;10.986;2023-07-20T04:51:22;7.53;;;4.18;;
12878;SDS011;20617;49.476;10.986;2023-07-20T04:53:29;10.07;;;4.15;;
12878;SDS011;20617;49.476;10.986;2023-07-20T04:55:35;8.70;;;4.07;;
12878;SDS011;20617;49.476;10.986;2023-07-20T04:57:42;6.68;;;3.83;;
12878;SDS011;20617;49.476;10.986;2023-07-20T04:59:47;6.38;;;3.05;;
12878;SDS011;20617;49.476;10.986;2023-07-20T05:01:52;8.20;;;3.75;;
12878;SDS011;20617;49.476;10.986;2023-07-20T05:06:02;6.05;;;3.60;;
12878;SDS011;20617;49.476;10.986;2023-07-20T05:08:10;6.93;;;4.13;;
12878;SDS011;20617;49.476;10.986;2023-07-20T05:10:17;7.63;;;3.85;;
12878;SDS011;20617;49.476;10.986;2023-07-20T05:12:24;7.68;;;3.47;;
12878;SDS011;20617;49.476;10.986;2023-07-20T05:14:29;7.57;;;3.78;;
12878;SDS011;20617;49.476;10.986;2023-07-20T05:16:34;5.53;;;3.60;;
12878;SDS011;20617;49.476;10.986;2023-07-20T05:18:41;9.10;;;3.90;;
12878;SDS011;20617;49.476;10.986;2023-07-20T05:20:46;5.70;;;4.15;;
12878;SDS011;20617;49.476;10.986;2023-07-20T05:24:59;9.40;;;4.43;;
12878;SDS011;20617;49.476;10.986;2023-07-20T05:27:02;7.25;;;3.95;;
12878;SDS011;20617;49.476;10.986;2023-07-20T05:31:13;12.80;;;4.00;;
12878;SDS011;20617;49.476;10.986;2023-07-20T05:33:19;7.93;;;3.90;;
12878;SDS011;20617;49.476;10.986;2023-07-20T05:35:28;6.30;;;4.05;;
12878;SDS011;20617;49.476;10.986;2023-07-20T05:37:33;11.40;;;3.78;;
12878;SDS011;20617;49.476;10.986;2023-07-20T05:39:38;5.78;;;3.55;;
12878;SDS011;20617;49.476;10.986;2023-07-20T05:41:46;9.40;;;4.15;;
12878;SDS011;20617;49.476;10.986;2023-07-20T05:43:50;5.78;;;3.25;;
12878;SDS011;20617;49.476;10.986;2023-07-20T05:45:58;6.75;;;3.38;;
12878;SDS011;20617;49.476;10.986;2023-07-20T05:48:07;8.27;;;3.47;;
12878;SDS011;20617;49.476;10.986;2023-07-20T05:50:11;5.82;;;2.95;;
12878;SDS011;20617;49.476;10.986;2023-07-20T05:52:16;7.53;;;3.42;;
12878;SDS011;20617;49.476;10.986;2023-07-20T05:54:23;5.28;;;3.20;;
12878;SDS011;20617;49.476;10.986;2023-07-20T05:56:30;7.15;;;3.42;;
12878;SDS011;20617;49.476;10.986;2023-07-20T06:00:42;10.45;;;3.63;;
12878;SDS011;20617;49.476;10.986;2023-07-20T06:04:53;10.32;;;3.58;;
12878;SDS011;20617;49.476;10.986;2023-07-20T06:06:58;8.55;;;3.90;;
12878;SDS011;20617;49.476;10.986;2023-07-20T06:09:03;9.00;;;3.47;;
12878;SDS011;20617;49.476;10.986;2023-07-20T06:11:11;6.80;;;3.38;;
12878;SDS011;20617;49.476;10.986;2023-07-20T06:15:27;10.63;;;3.38;;
12878;SDS011;20617;49.476;10.986;2023-07-20T06:17:33;5.95;;;3.35;;
12878;SDS011;20617;49.476;10.986;2023-07-20T06:19:41;9.52;;;3.90;;
12878;SDS011;20617;49.476;10.986;2023-07-20T06:21:48;6.65;;;3.08;;
12878;SDS011;20617;49.476;10.986;2023-07-20T06:23:59;9.45;;;3.25;;
12878;SDS011;20617;49.476;10.986;2023-07-20T06:28:14;6.35;;;3.47;;
12878;SDS011;20617;49.476;10.986;2023-07-20T06:30:22;8.38;;;3.90;;
12878;SDS011;20617;49.476;10.986;2023-07-20T06:32:31;10.52;;;3.75;;
12878;SDS011;20617;49.476;10.986;2023-07-20T06:34:34;3.95;;;3.08;;
12878;SDS011;20617;49.476;10.986;2023-07-20T06:36:41;5.03;;;2.83;;
12878;SDS011;20617;49.476;10.986;2023-07-20T06:38:46;8.38;;;3.28;;
12878;SDS011;20617;49.476;10.986;2023-07-20T06:40:52;6.10;;;2.85;;
12878;SDS011;20617;49.476;10.986;2023-07-20T06:45:07;10.80;;;3.60;;
12878;SDS011;20617;49.476;10.986;2023-07-20T06:47:12;5.05;;;2.85;;
12878;SDS011;20617;49.476;10.986;2023-07-20T06:49:26;5.68;;;3.08;;
12878;SDS011;20617;49.476;10.986;2023-07-20T06:51:33;6.35;;;2.83;;
12878;SDS011;20617;49.476;10.986;2023-07-20T06:53:38;9.90;;;3.38;;
12878;SDS011;20617;49.476;10.986;2023-07-20T06:55:45;6.03;;;3.20;;
12878;SDS011;20617;49.476;10.986;2023-07-20T06:57:50;5.20;;;2.45;;
12878;SDS011;20617;49.476;10.986;2023-07-20T07:00:00;5.30;;;2.85;;
12878;SDS011;20617;49.476;10.986;2023-07-20T07:02:06;7.40;;;2.78;;
12878;SDS011;20617;49.476;10.986;2023-07-20T07:04:14;6.43;;;2.70;;
12878;SDS011;20617;49.476;10.986;2023-07-20T07:06:24;8.82;;;2.55;;
12878;SDS011;20617;49.476;10.986;2023-07-20T07:08:31;5.40;;;3.22;;
12878;SDS011;20617;49.476;10.986;2023-07-20T07:10:37;5.25;;;2.40;;
12878;SDS011;20617;49.476;10.986;2023-07-20T07:12:42;5.93;;;2.95;;
12878;SDS011;20617;49.476;10.986;2023-07-20T07:16:54;4.97;;;2.83;;
12878;SDS011;20617;49.476;10.986;2023-07-20T07:18:59;6.78;;;2.90;;
12878;SDS011;20617;49.476;10.986;2023-07-20T07:21:07;5.63;;;3.00;;
12878;SDS011;20617;49.476;10.986;2023-07-20T07:23:14;5.65;;;2.55;;
12878;SDS011;20617;49.476;10.986;2023-07-20T07:25:20;5.40;;;2.42;;
12878;SDS011;20617;49.476;10.986;2023-07-20T07:27:27;6.55;;;2.60;;
12878;SDS011;20617;49.476;10.986;2023-07-20T07:29:32;6.00;;;2.70;;
12878;SDS011;20617;49.476;10.986;2023-07-20T07:33:42;4.53;;;2.20;;
12878;SDS011;20617;49.476;10.986;2023-07-20T07:35:47;6.88;;;2.55;;
12878;SDS011;20617;49.476;10.986;2023-07-20T07:37:54;4.60;;;2.40;;
12878;SDS011;20617;49.476;10.986;2023-07-20T07:40:07;4.85;;;2.85;;
12878;SDS011;20617;49.476;10.986;2023-07-20T07:42:16;5.15;;;2.58;;
12878;SDS011;20617;49.476;10.986;2023-07-20T07:44:25;9.45;;;3.28;;
12878;SDS011;20617;49.476;10.986;2023-07-20T07:46:31;4.45;;;2.30;;
12878;SDS011;20617;49.476;10.986;2023-07-20T07:48:38;9.15;;;2.30;;
12878;SDS011;20617;49.476;10.986;2023-07-20T07:52:51;3.22;;;2.05;;
12878;SDS011;20617;49.476;10.986;2023-07-20T07:57:04;6.00;;;2.10;;
12878;SDS011;20617;49.476;10.986;2023-07-20T07:59:12;2.88;;;2.00;;
12878;SDS011;20617;49.476;10.986;2023-07-20T08:01:17;4.75;;;2.13;;
12878;SDS011;20617;49.476;10.986;2023-07-20T08:03:24;5.50;;;2.58;;
12878;SDS011;20617;49.476;10.986;2023-07-20T08:05:29;6.80;;;2.60;;
12878;SDS011;20617;49.476;10.986;2023-07-20T08:07:35;7.53;;;2.70;;
12878;SDS011;20617;49.476;10.986;2023-07-20T08:09:41;5.60;;;2.53;;
12878;SDS011;20617;49.476;10.986;2023-07-20T08:11:47;5.00;;;2.38;;
12878;SDS011;20617;49.476;10.986;2023-07-20T08:13:55;13.10;;;2.42;;
12878;SDS011;20617;49.476;10.986;2023-07-20T08:16:00;5.05;;;2.65;;
12878;SDS011;20617;49.476;10.986;2023-07-20T08:18:18;5.75;;;2.30;;
12878;SDS011;20617;49.476;10.986;2023-07-20T08:20:24;5.40;;;2.00;;
12878;SDS011;20617;49.476;10.986;2023-07-20T08:22:31;5.88;;;2.80;;
12878;SDS011;20617;49.476;10.986;2023-07-20T08:24:38;7.20;;;3.15;;
12878;SDS011;20617;49.476;10.986;2023-07-20T08:26:44;4.50;;;2.38;;
12878;SDS011;20617;49.476;10.986;2023-07-20T08:30:54;4.95;;;2.20;;
12878;SDS011;20617;49.476;10.986;2023-07-20T08:32:59;9.88;;;2.20;;
12878;SDS011;20617;49.476;10.986;2023-07-20T08:37:09;6.90;;;2.13;;
12878;SDS011;20617;49.476;10.986;2023-07-20T08:41:20;6.30;;;2.63;;
12878;SDS011;20617;49.476;10.986;2023-07-20T08:45:34;2.97;;;1.95;;
12878;SDS011;20617;49.476;10.986;2023-07-20T08:47:43;4.93;;;2.08;;
12878;SDS011;20617;49.476;10.986;2023-07-20T08:49:53;2.90;;;1.52;;
12878;SDS011;20617;49.476;10.986;2023-07-20T08:52:00;6.28;;;1.85;;
12878;SDS011;20617;49.476;10.986;2023-07-20T08:54:05;4.57;;;2.05;;
12878;SDS011;20617;49.476;10.986;2023-07-20T08:56:12;5.18;;;2.30;;
12878;SDS011;20617;49.476;10.986;2023-07-20T08:58:23;5.80;;;2.55;;
12878;SDS011;20617;49.476;10.986;2023-07-20T09:00:31;7.15;;;1.83;;
12878;SDS011;20617;49.476;10.986;2023-07-20T09:02:38;3.75;;;1.90;;
12878;SDS011;20617;49.476;10.986;2023-07-20T09:04:47;4.30;;;1.67;;
12878;SDS011;20617;49.476;10.986;2023-07-20T09:06:53;4.13;;;1.77;;
12878;SDS011;20617;49.476;10.986;2023-07-20T09:08:59;3.35;;;1.90;;
12878;SDS011;20617;49.476;10.986;2023-07-20T09:11:06;4.47;;;2.05;;
12878;SDS011;20617;49.476;10.986;2023-07-20T09:13:14;4.32;;;1.67;;
12878;SDS011;20617;49.476;10.986;2023-07-20T09:15:22;4.50;;;1.90;;
12878;SDS011;20617;49.476;10.986;2023-07-20T09:17:28;4.10;;;2.08;;
12878;SDS011;20617;49.476;10.986;2023-07-20T09:19:33;5.18;;;1.63;;
12878;SDS011;20617;49.476;10.986;2023-07-20T09:21:42;5.07;;;1.73;;
12878;SDS011;20617;49.476;10.986;2023-07-20T09:23:49;4.82;;;1.80;;
12878;SDS011;20617;49.476;10.986;2023-07-20T09:26:00;6.30;;;1.75;;
12878;SDS011;20617;49.476;10.986;2023-07-20T09:28:14;3.35;;;1.50;;
12878;SDS011;20617;49.476;10.986;2023-07-20T09:30:24;3.35;;;1.48;;
12878;SDS011;20617;49.476;10.986;2023-07-20T09:32:37;5.20;;;2.00;;
12878;SDS011;20617;49.476;10.986;2023-07-20T09:34:48;2.50;;;1.50;;
12878;SDS011;20617;49.476;10.986;2023-07-20T09:36:58;3.30;;;1.35;;
12878;SDS011;20617;49.476;10.986;2023-07-20T09:39:04;5.93;;;2.22;;
12878;SDS011;20617;49.476;10.986;2023-07-20T09:41:13;5.47;;;1.70;;
12878;SDS011;20617;49.476;10.986;2023-07-20T09:43:21;3.35;;;1.50;;
12878;SDS011;20617;49.476;10.986;2023-07-20T09:45:30;2.80;;;1.40;;
12878;SDS011;20617;49.476;10.986;2023-07-20T09:47:40;2.03;;;1.38;;
12878;SDS011;20617;49.476;10.986;2023-07-20T09:51:53;3.70;;;1.55;;
12878;SDS011;20617;49.476;10.986;2023-07-20T09:54:02;4.88;;;1.45;;
12878;SDS011;20617;49.476;10.986;2023-07-20T09:56:10;2.75;;;1.30;;
12878;SDS011;20617;49.476;10.986;2023-07-20T09:58:18;3.38;;;1.13;;
12878;SDS011;20617;49.476;10.986;2023-07-20T10:02:32;4.20;;;1.52;;
12878;SDS011;20617;49.476;10.986;2023-07-20T10:04:38;3.55;;;1.88;;
12878;SDS011;20617;49.476;10.986;2023-07-20T10:06:44;3.05;;;1.60;;
12878;SDS011;20617;49.476;10.986;2023-07-20T10:08:52;5.15;;;1.30;;
12878;SDS011;20617;49.476;10.986;2023-07-20T10:11:02;3.15;;;1.48;;
12878;SDS011;20617;49.476;10.986;2023-07-20T10:13:09;1.60;;;1.00;;
12878;SDS011;20617;49.476;10.986;2023-07-20T10:15:23;4.75;;;1.55;;
12878;SDS011;20617;49.476;10.986;2023-07-20T10:17:31;1.85;;;1.23;;
12878;SDS011;20617;49.476;10.986;2023-07-20T10:19:38;2.05;;;1.42;;
12878;SDS011;20617;49.476;10.986;2023-07-20T10:21:55;1.90;;;1.27;;
12878;SDS011;20617;49.476;10.986;2023-07-20T10:24:05;2.28;;;1.45;;
12878;SDS011;20617;49.476;10.986;2023-07-20T10:26:15;5.00;;;1.30;;
12878;SDS011;20617;49.476;10.986;2023-07-20T10:28:24;2.05;;;1.10;;
12878;SDS011;20617;49.476;10.986;2023-07-20T10:30:30;1.95;;;1.10;;
12878;SDS011;20617;49.476;10.986;2023-07-20T10:32:33;1.80;;;1.30;;
12878;SDS011;20617;49.476;10.986;2023-07-20T10:34:39;2.35;;;1.50;;
12878;SDS011;20617;49.476;10.986;2023-07-20T10:38:52;2.08;;;1.30;;
12878;SDS011;20617;49.476;10.986;2023-07-20T10:40:59;2.78;;;1.40;;
12878;SDS011;20617;49.476;10.986;2023-07-20T10:43:08;2.38;;;1.52;;
12878;SDS011;20617;49.476;10.986;2023-07-20T10:45:13;2.75;;;1.52;;
12878;SDS011;20617;49.476;10.986;2023-07-20T10:47:21;3.83;;;1.60;;
12878;SDS011;20617;49.476;10.986;2023-07-20T10:49:26;1.67;;;1.05;;
12878;SDS011;20617;49.476;10.986;2023-07-20T10:51:38;2.45;;;1.25;;
12878;SDS011;20617;49.476;10.986;2023-07-20T10:53:44;1.58;;;1.05;;
12878;SDS011;20617;49.476;10.986;2023-07-20T10:58:13;4.78;;;1.08;;
12878;SDS011;20617;49.476;10.986;2023-07-20T11:00:22;4.60;;;1.58;;
12878;SDS011;20617;49.476;10.986;2023-07-20T11:02:29;7.10;;;1.15;;
12878;SDS011;20617;49.476;10.986;2023-07-20T11:04:45;2.10;;;1.25;;
12878;SDS011;20617;49.476;10.986;2023-07-20T11:06:55;4.13;;;1.17;;
12878;SDS011;20617;49.476;10.986;2023-07-20T11:09:05;1.70;;;1.13;;
12878;SDS011;20617;49.476;10.986;2023-07-20T11:11:22;5.70;;;1.33;;
12878;SDS011;20617;49.476;10.986;2023-07-20T11:13:31;2.42;;;1.48;;
12878;SDS011;20617;49.476;10.986;2023-07-20T11:15:45;1.70;;;0.90;;
12878;SDS011;20617;49.476;10.986;2023-07-20T11:17:51;1.65;;;1.02;;
12878;SDS011;20617;49.476;10.986;2023-07-20T11:19:59;1.88;;;1.33;;
12878;SDS011;20617;49.476;10.986;2023-07-20T11:22:11;1.55;;;1.00;;
12878;SDS011;20617;49.476;10.986;2023-07-20T11:24:20;2.45;;;1.20;;
12878;SDS011;20617;49.476;10.986;2023-07-20T11:26:26;1.90;;;1.10;;
12878;SDS011;20617;49.476;10.986;2023-07-20T11:28:36;2.08;;;1.42;;
12878;SDS011;20617;49.476;10.986;2023-07-20T11:30:41;2.20;;;1.10;;
12878;SDS011;20617;49.476;10.986;2023-07-20T11:32:47;3.63;;;1.83;;
12878;SDS011;20617;49.476;10.986;2023-07-20T11:34:53;1.55;;;1.30;;
12878;SDS011;20617;49.476;10.986;2023-07-20T11:36:58;2.13;;;1.60;;
12878;SDS011;20617;49.476;10.986;2023-07-20T11:39:07;2.10;;;1.13;;
12878;SDS011;20617;49.476;10.986;2023-07-20T11:41:13;2.95;;;1.35;;
12878;SDS011;20617;49.476;10.986;2023-07-20T11:43:18;2.67;;;1.30;;
12878;SDS011;20617;49.476;10.986;2023-07-20T11:45:27;1.67;;;1.25;;
12878;SDS011;20617;49.476;10.986;2023-07-20T11:47:35;2.80;;;1.48;;
12878;SDS011;20617;49.476;10.986;2023-07-20T11:49:45;2.28;;;1.33;;
12878;SDS011;20617;49.476;10.986;2023-07-20T11:51:56;1.75;;;1.30;;
12878;SDS011;20617;49.476;10.986;2023-07-20T11:54:02;2.55;;;1.10;;
12878;SDS011;20617;49.476;10.986;2023-07-20T11:56:12;2.83;;;1.23;;
12878;SDS011;20617;49.476;10.986;2023-07-20T11:58:20;3.80;;;1.08;;
12878;SDS011;20617;49.476;10.986;2023-07-20T12:00:28;5.47;;;1.38;;
12878;SDS011;20617;49.476;10.986;2023-07-20T12:02:33;1.67;;;1.20;;
12878;SDS011;20617;49.476;10.986;2023-07-20T12:04:38;2.55;;;0.95;;
12878;SDS011;20617;49.476;10.986;2023-07-20T12:06:44;2.97;;;1.40;;
12878;SDS011;20617;49.476;10.986;2023-07-20T12:08:50;3.17;;;1.27;;
12878;SDS011;20617;49.476;10.986;2023-07-20T12:10:58;2.05;;;1.33;;
12878;SDS011;20617;49.476;10.986;2023-07-20T12:13:04;2.05;;;1.05;;
12878;SDS011;20617;49.476;10.986;2023-07-20T12:15:16;1.15;;;1.02;;
12878;SDS011;20617;49.476;10.986;2023-07-20T12:17:22;2.47;;;1.00;;
12878;SDS011;20617;49.476;10.986;2023-07-20T12:19:29;3.00;;;1.10;;
12878;SDS011;20617;49.476;10.986;2023-07-20T12:21:36;1.35;;;0.73;;
12878;SDS011;20617;49.476;10.986;2023-07-20T12:23:45;1.60;;;0.90;;
12878;SDS011;20617;49.476;10.986;2023-07-20T12:25:51;4.97;;;1.42;;
12878;SDS011;20617;49.476;10.986;2023-07-20T12:27:57;2.58;;;1.40;;
12878;SDS011;20617;49.476;10.986;2023-07-20T12:30:07;5.90;;;1.50;;
12878;SDS011;20617;49.476;10.986;2023-07-20T12:32:15;2.15;;;1.15;;
12878;SDS011;20617;49.476;10.986;2023-07-20T12:34:22;4.72;;;1.40;;
12878;SDS011;20617;49.476;10.986;2023-07-20T12:36:30;5.07;;;1.70;;
12878;SDS011;20617;49.476;10.986;2023-07-20T12:38:36;1.52;;;1.05;;
12878;SDS011;20617;49.476;10.986;2023-07-20T12:40:43;2.42;;;1.38;;
12878;SDS011;20617;49.476;10.986;2023-07-20T12:44:53;2.05;;;1.30;;
12878;SDS011;20617;49.476;10.986;2023-07-20T12:46:58;2.08;;;1.02;;
12878;SDS011;20617;49.476;10.986;2023-07-20T12:49:04;3.58;;;1.55;;
12878;SDS011;20617;49.476;10.986;2023-07-20T12:51:12;1.52;;;1.10;;
12878;SDS011;20617;49.476;10.986;2023-07-20T12:53:17;1.77;;;1.20;;
12878;SDS011;20617;49.476;10.986;2023-07-20T12:55:23;1.95;;;1.23;;
12878;SDS011;20617;49.476;10.986;2023-07-20T12:57:30;2.70;;;1.55;;
12878;SDS011;20617;49.476;10.986;2023-07-20T12:59:36;4.07;;;1.60;;
12878;SDS011;20617;49.476;10.986;2023-07-20T13:01:41;2.08;;;1.30;;
12878;SDS011;20617;49.476;10.986;2023-07-20T13:06:14;2.95;;;1.42;;
12878;SDS011;20617;49.476;10.986;2023-07-20T13:08:22;1.10;;;1.00;;
12878;SDS011;20617;49.476;10.986;2023-07-20T13:10:28;2.80;;;1.42;;
12878;SDS011;20617;49.476;10.986;2023-07-20T13:12:34;2.15;;;1.42;;
12878;SDS011;20617;49.476;10.986;2023-07-20T13:14:40;2.70;;;1.50;;
12878;SDS011;20617;49.476;10.986;2023-07-20T13:16:45;2.85;;;1.65;;
12878;SDS011;20617;49.476;10.986;2023-07-20T13:18:50;5.00;;;1.33;;
12878;SDS011;20617;49.476;10.986;2023-07-20T13:20:56;6.95;;;1.83;;
12878;SDS011;20617;49.476;10.986;2023-07-20T13:23:08;6.03;;;1.40;;
12878;SDS011;20617;49.476;10.986;2023-07-20T13:25:13;2.70;;;1.38;;
12878;SDS011;20617;49.476;10.986;2023-07-20T13:27:22;2.42;;;1.25;;
12878;SDS011;20617;49.476;10.986;2023-07-20T13:29:30;3.08;;;1.50;;
12878;SDS011;20617;49.476;10.986;2023-07-20T13:31:35;3.30;;;1.10;;
12878;SDS011;20617;49.476;10.986;2023-07-20T13:33:43;2.38;;;1.45;;
12878;SDS011;20617;49.476;10.986;2023-07-20T13:35:59;2.38;;;1.30;;
12878;SDS011;20617;49.476;10.986;2023-07-20T13:38:12;2.72;;;1.35;;
12878;SDS011;20617;49.476;10.986;2023-07-20T13:40:18;5.82;;;1.23;;
12878;SDS011;20617;49.476;10.986;2023-07-20T13:42:32;3.05;;;1.23;;
12878;SDS011;20617;49.476;10.986;2023-07-20T13:44:36;5.50;;;1.77;;